Spirit Of New York — WCW9332 — position and weather

sailwx.info

Track history (hours):
 
Tides and Currents Weather Stations Pressure Air Temp Water Temp Dewpoint Dewpoint Depression Visibility Wind Speed Wind Dir Waves Ship Positions

Spirit Of New York

Owner: SPIRIT CRUISES LLC, NEW YORK, NY. More information available from US FCC via Universal Licensing System and Coast Guard Vessel Documentation Center.

Last reported at 2017-Feb-26 02:34 UTC. Time now 2017-Feb-26 19:20 UTC.
Position N 40°44' W 074°01'.

Length 62 m.

Type: Passenger vessel. MMSI: 338897000.

Date/timePositionNaut miles runAvg speedWind from/ knotsBaromVisibWave heightAir tempDewpointWater temp
2017-Feb-26 02:34N 40°44' W 074°01'2 2.4
2017-Feb-26 01:34N 40°42' W 074°01'1 1.0
2017-Feb-26 00:34N 40°43' W 074°01'2 2.1
2017-Feb-25 23:34N 40°45' W 074°01'  
2017-Feb-20 02:29N 40°45' W 074°01'4 4.3
2017-Feb-20 01:33N 40°41' W 074°02'3 2.5
2017-Feb-20 00:33N 40°44' W 074°01'1 1.4
2017-Feb-19 23:33N 40°45' W 074°01'0 0.0
2017-Feb-19 06:32N 40°45' W 074°01'4 4.0
2017-Feb-19 05:34N 40°41' W 074°02'4 3.9
2017-Feb-19 04:34N 40°45' W 074°01'0 0.0
2017-Feb-19 03:33N 40°45' W 074°01'1 0.9
2017-Feb-19 02:34N 40°46' W 074°01'4 4.0
2017-Feb-19 01:33N 40°42' W 074°02'2 2.3
2017-Feb-19 00:34N 40°44' W 074°01'2 1.5
2017-Feb-18 23:33N 40°46' W 074°01'0 0.2
2017-Feb-18 22:33N 40°46' W 074°01'1 0.9
2017-Feb-18 21:33N 40°45' W 074°01'0 0.0
2017-Feb-18 20:33N 40°45' W 074°01'0 0.0
2017-Feb-18 19:33N 40°45' W 074°01'0 0.3
2017-Feb-18 18:33N 40°45' W 074°01'3 2.7
2017-Feb-18 17:33N 40°42' W 074°01'3 2.7
2017-Feb-18 16:33N 40°45' W 074°01'0 0.0
2017-Feb-17 02:29N 40°45' W 074°01'4 4.1
2017-Feb-17 01:33N 40°41' W 074°02'3 2.5
2017-Feb-17 00:33N 40°44' W 074°01'1 1.3
2017-Feb-16 23:33N 40°45' W 074°01'0 0.0
2017-Feb-16 22:33N 40°45' W 074°01'0 0.0
2017-Feb-16 21:33N 40°45' W 074°01'0 0.0
2017-Feb-16 20:33N 40°45' W 074°01'0 0.0
2017-Feb-16 19:33N 40°45' W 074°01'1 0.6
2017-Feb-16 18:33N 40°44' W 074°01'2 2.4
2017-Feb-16 17:33N 40°42' W 074°01'3 3.0
2017-Feb-16 16:33N 40°45' W 074°01'0 0.0
2017-Feb-16 15:33N 40°45' W 074°01'  
Track history (hours):
 
Tides and Currents Weather Stations Pressure Air Temp Water Temp Dewpoint Dewpoint Depression Visibility Wind Speed Wind Dir Waves Ship Positions

Spirit Of New York

Owner: SPIRIT CRUISES LLC, NEW YORK, NY. More information available from US FCC via Universal Licensing System and Coast Guard Vessel Documentation Center.

Last reported at 2017-Feb-26 02:34 UTC. Time now 2017-Feb-26 19:20 UTC.
Position N 40°44' W 074°01'.

Length 62 m.

Type: Passenger vessel. MMSI: 338897000.

Date/timePositionNaut miles runAvg speedWind from/ knotsBaromVisibWave heightAir tempDewpointWater temp
2017-Feb-26 02:34N 40°44' W 074°01'2 2.4
2017-Feb-26 01:34N 40°42' W 074°01'1 1.0
2017-Feb-26 00:34N 40°43' W 074°01'2 2.1
2017-Feb-25 23:34N 40°45' W 074°01'  
2017-Feb-20 02:29N 40°45' W 074°01'4 4.3
2017-Feb-20 01:33N 40°41' W 074°02'3 2.5
2017-Feb-20 00:33N 40°44' W 074°01'1 1.4
2017-Feb-19 23:33N 40°45' W 074°01'0 0.0
2017-Feb-19 06:32N 40°45' W 074°01'4 4.0
2017-Feb-19 05:34N 40°41' W 074°02'4 3.9
2017-Feb-19 04:34N 40°45' W 074°01'0 0.0
2017-Feb-19 03:33N 40°45' W 074°01'1 0.9
2017-Feb-19 02:34N 40°46' W 074°01'4 4.0
2017-Feb-19 01:33N 40°42' W 074°02'2 2.3
2017-Feb-19 00:34N 40°44' W 074°01'2 1.5
2017-Feb-18 23:33N 40°46' W 074°01'0 0.2
2017-Feb-18 22:33N 40°46' W 074°01'1 0.9
2017-Feb-18 21:33N 40°45' W 074°01'0 0.0
2017-Feb-18 20:33N 40°45' W 074°01'0 0.0
2017-Feb-18 19:33N 40°45' W 074°01'0 0.3
2017-Feb-18 18:33N 40°45' W 074°01'3 2.7
2017-Feb-18 17:33N 40°42' W 074°01'3 2.7
2017-Feb-18 16:33N 40°45' W 074°01'0 0.0
2017-Feb-17 02:29N 40°45' W 074°01'4 4.1
2017-Feb-17 01:33N 40°41' W 074°02'3 2.5
2017-Feb-17 00:33N 40°44' W 074°01'1 1.3
2017-Feb-16 23:33N 40°45' W 074°01'0 0.0
2017-Feb-16 22:33N 40°45' W 074°01'0 0.0
2017-Feb-16 21:33N 40°45' W 074°01'0 0.0
2017-Feb-16 20:33N 40°45' W 074°01'0 0.0
2017-Feb-16 19:33N 40°45' W 074°01'1 0.6
2017-Feb-16 18:33N 40°44' W 074°01'2 2.4
2017-Feb-16 17:33N 40°42' W 074°01'3 3.0
2017-Feb-16 16:33N 40°45' W 074°01'0 0.0
2017-Feb-16 15:33N 40°45' W 074°01'  

Dump ship's entire track history